Terminal Aerodrome Forecast
Issued by NWS Charleston, WV

Current Version | Previous Version | Graphics & Text | Print | Product List | Glossary On
Versions: 1 2 3 4 5 6 7 8 9 10 11 12 13 14 15 16 17 18 19 20 21 22 23 24 25
000
FTUS41 KRLX 201533 AAA
TAFCRW
TAF AMD
KCRW 201533Z 2016/2112 23011KT P6SM SCT035
     FM201700 24007G16KT P6SM BKN025
     FM210000 22004KT P6SM OVC015
     FM210600 VRB03KT P6SM -RA OVC015=

USA.gov is the U.S. government's official web portal to all federal, state and local government web resources and services.